createdAt,value
2019-05-26T00:01:13.640Z,93596.69
2019-05-26T00:03:41.886Z,93595.16
2019-05-26T00:06:10.073Z,93597.77
2019-05-26T00:08:41.895Z,93598.33
2019-05-26T00:11:12.742Z,93593.05
2019-05-26T00:13:40.909Z,93596.44
2019-05-26T00:16:09.580Z,93599.39
2019-05-26T00:18:38.381Z,93594.81
2019-05-26T00:21:06.945Z,93598.69
2019-05-26T00:23:35.551Z,93595.48
2019-05-26T00:26:04.322Z,93598.25
2019-05-26T00:28:35.362Z,93591.97
2019-05-26T00:31:04.165Z,93594.52
2019-05-26T00:33:32.709Z,93594.75
2019-05-26T00:36:03.290Z,93587.59
2019-05-26T00:38:31.751Z,93585.80
2019-05-26T00:40:59.947Z,93588.30
2019-05-26T00:43:27.861Z,93583.01
2019-05-26T00:45:57.098Z,93578.35
2019-05-26T00:48:24.996Z,93574.39
2019-05-26T00:50:54.346Z,93571.71
2019-05-26T00:53:22.738Z,93567.63
2019-05-26T00:55:50.439Z,93570.05
2019-05-26T00:58:18.951Z,93571.19
2019-05-26T01:00:47.522Z,93570.48
2019-05-26T01:03:16.223Z,93566.95
2019-05-26T01:05:44.355Z,93566.88
2019-05-26T01:08:12.843Z,93560.08
2019-05-26T01:10:41.162Z,93565.53
2019-05-26T01:13:12.534Z,93559.98
2019-05-26T01:15:40.839Z,93563.42
2019-05-26T01:18:08.673Z,93563.27
2019-05-26T01:20:36.178Z,93559.89
2019-05-26T01:23:04.484Z,93562.83
2019-05-26T01:25:32.795Z,93562.46
2019-05-26T01:28:00.620Z,93563.61
2019-05-26T01:30:35.809Z,93555.28
2019-05-26T01:33:04.494Z,93559.52
2019-05-26T01:35:33.105Z,93558.25
2019-05-26T01:38:01.384Z,93559.16
2019-05-26T01:40:39.779Z,93557.45
2019-05-26T01:43:08.287Z,93559.76
2019-05-26T01:45:36.452Z,93567.05
2019-05-26T01:48:05.178Z,93562.33
2019-05-26T01:50:33.340Z,93560.28
2019-05-26T01:53:01.189Z,93562.31
2019-05-26T01:55:28.672Z,93559.31
2019-05-26T01:57:56.943Z,93561.03
2019-05-26T02:00:25.529Z,93560.22
2019-05-26T02:02:53.727Z,93559.38
2019-05-26T02:05:22.199Z,93559.78
2019-05-26T02:07:52.026Z,93559.91
2019-05-26T02:10:20.543Z,93560.66
2019-05-26T02:12:48.544Z,93568.59
2019-05-26T02:15:17.310Z,93563.63
2019-05-26T02:17:46.957Z,93559.34
2019-05-26T02:20:14.985Z,93559.80
2019-05-26T02:22:42.857Z,93554.71
2019-05-26T02:25:11.373Z,93559.23
2019-05-26T02:27:39.913Z,93555.16
2019-05-26T02:30:08.327Z,93558.64
2019-05-26T02:32:38.709Z,93564.57
2019-05-26T02:35:06.998Z,93568.13
2019-05-26T02:37:35.252Z,93568.59
2019-05-26T02:40:02.864Z,93564.50
2019-05-26T02:42:31.065Z,93568.25
2019-05-26T02:44:59.523Z,93569.91
2019-05-26T02:47:28.334Z,93567.00
2019-05-26T02:49:57.030Z,93563.56
2019-05-26T02:52:27.037Z,93568.52
2019-05-26T02:54:55.204Z,93561.92
2019-05-26T02:57:23.710Z,93563.56
2019-05-26T02:59:51.932Z,93565.28
2019-05-26T03:02:21.410Z,93566.63
2019-05-26T03:04:49.988Z,93565.50
2019-05-26T03:07:18.669Z,93568.98
2019-05-26T03:09:47.820Z,93574.15
2019-05-26T03:12:18.324Z,93575.05
2019-05-26T03:14:47.616Z,93568.27
2019-05-26T03:17:17.032Z,93571.27
2019-05-26T03:19:46.259Z,93573.42
2019-05-26T03:22:16.716Z,93576.81
2019-05-26T03:24:46.873Z,93568.40
2019-05-26T03:27:15.389Z,93567.06
2019-05-26T03:29:46.248Z,93572.16
2019-05-26T03:32:16.636Z,93574.00
2019-05-26T03:34:44.896Z,93571.09
2019-05-26T03:37:12.799Z,93570.23
2019-05-26T03:39:46.170Z,93571.20
2019-05-26T03:42:14.054Z,93573.29
2019-05-26T03:44:42.215Z,93577.56
2019-05-26T03:47:09.723Z,93580.94
2019-05-26T03:49:39.109Z,93572.78
2019-05-26T03:52:07.316Z,93577.75
2019-05-26T03:54:35.670Z,93572.34
2019-05-26T03:57:05.893Z,93582.72
2019-05-26T03:59:34.804Z,93581.49
2019-05-26T04:02:03.304Z,93580.88
2019-05-26T04:04:31.523Z,93585.66
2019-05-26T04:06:59.741Z,93586.53
2019-05-26T04:09:28.460Z,93589.59
2019-05-26T04:11:59.434Z,93587.09
2019-05-26T04:14:27.912Z,93590.87
2019-05-26T04:16:58.520Z,93585.39
2019-05-26T04:19:29.050Z,93586.93
2019-05-26T04:21:56.980Z,93592.40
2019-05-26T04:24:25.209Z,93584.81
2019-05-26T04:26:53.580Z,93588.06
2019-05-26T04:29:22.268Z,93587.12
2019-05-26T04:31:50.490Z,93582.14
2019-05-26T04:34:19.049Z,93581.92
2019-05-26T04:36:46.940Z,93579.75
2019-05-26T04:39:17.598Z,93580.64
2019-05-26T04:41:46.235Z,93586.09
2019-05-26T04:44:17.368Z,93581.40
2019-05-26T04:46:46.272Z,93572.05
2019-05-26T04:49:14.878Z,93582.15
2019-05-26T04:51:43.180Z,93585.28
2019-05-26T04:54:11.475Z,93586.69
2019-05-26T04:56:39.700Z,93588.36
2019-05-26T04:59:08.311Z,93591.70
2019-05-26T05:01:39.045Z,93583.37
2019-05-26T05:04:07.643Z,93587.63
2019-05-26T05:06:35.565Z,93591.84
2019-05-26T05:09:06.435Z,93587.14
2019-05-26T05:11:34.895Z,93592.10
2019-05-26T05:14:03.220Z,93587.77
2019-05-26T05:16:31.381Z,93587.55
2019-05-26T05:18:59.990Z,93582.27
2019-05-26T05:21:28.363Z,93585.31
2019-05-26T05:23:56.646Z,93584.28
2019-05-26T05:26:24.608Z,93584.29
2019-05-26T05:28:52.670Z,93586.78
2019-05-26T05:31:21.293Z,93585.41
2019-05-26T05:33:49.815Z,93584.95
2019-05-26T05:36:18.325Z,93582.45
2019-05-26T05:38:46.956Z,93586.56
2019-05-26T05:41:14.981Z,93590.25
2019-05-26T05:43:43.878Z,93587.89
2019-05-26T05:46:12.525Z,93595.14
2019-05-26T05:48:40.625Z,93594.47
2019-05-26T05:51:09.123Z,93597.95
2019-05-26T05:53:37.464Z,93601.42
2019-05-26T05:56:05.259Z,93604.45
2019-05-26T05:58:33.429Z,93608.27
2019-05-26T06:01:01.599Z,93611.58
2019-05-26T06:03:29.878Z,93611.87
2019-05-26T06:05:58.150Z,93613.52
2019-05-26T06:08:28.128Z,93613.79
2019-05-26T06:10:56.678Z,93615.74
2019-05-26T06:13:25.362Z,93609.48
2019-05-26T06:15:53.333Z,93612.30
2019-05-26T06:18:21.542Z,93615.02
2019-05-26T06:20:49.783Z,93606.63
2019-05-26T06:23:17.932Z,93604.59
2019-05-26T06:25:46.556Z,93604.65
2019-05-26T06:28:15.096Z,93602.88
2019-05-26T06:30:43.554Z,93602.36
2019-05-26T06:33:11.409Z,93599.34
2019-05-26T06:35:40.002Z,93600.38
2019-05-26T06:38:08.309Z,93600.91
2019-05-26T06:40:36.288Z,93596.45
2019-05-26T06:43:04.853Z,93594.32
2019-05-26T06:45:33.143Z,93592.69
2019-05-26T06:48:01.740Z,93603.03
2019-05-26T06:50:29.600Z,93603.41
2019-05-26T06:52:56.834Z,93603.52
2019-05-26T06:55:25.139Z,93603.92
2019-05-26T06:57:53.415Z,93602.36
2019-05-26T07:00:21.629Z,93601.31
2019-05-26T07:02:49.444Z,93601.42
2019-05-26T07:05:18.555Z,93598.76
2019-05-26T07:07:47.016Z,93602.09
2019-05-26T07:10:16.044Z,93600.67
2019-05-26T07:12:44.093Z,93605.31
2019-05-26T07:15:12.932Z,93604.92
2019-05-26T07:17:42.533Z,93605.13
2019-05-26T07:20:11.079Z,93599.35
2019-05-26T07:22:39.504Z,93603.16
2019-05-26T07:25:11.080Z,93600.84
2019-05-26T07:27:39.366Z,93591.91
2019-05-26T07:30:11.853Z,93591.91
2019-05-26T07:32:40.362Z,93593.56
2019-05-26T07:35:08.558Z,93595.86
2019-05-26T07:37:39.580Z,93591.25
2019-05-26T07:40:08.063Z,93587.60
2019-05-26T07:42:36.712Z,93593.91
2019-05-26T07:45:05.500Z,93588.59
2019-05-26T07:47:33.685Z,93595.62
2019-05-26T07:50:02.062Z,93595.93
2019-05-26T07:52:30.150Z,93593.55
2019-05-26T07:54:58.350Z,93589.02
2019-05-26T07:57:26.868Z,93586.80
2019-05-26T07:59:55.107Z,93587.88
2019-05-26T08:02:23.605Z,93581.50
2019-05-26T08:04:51.846Z,93585.37
2019-05-26T08:07:23.028Z,93583.64
2019-05-26T08:09:50.281Z,93584.67
2019-05-26T08:12:27.053Z,93589.88
2019-05-26T08:14:49.725Z,93582.75
2019-05-26T08:17:20.774Z,93584.02
2019-05-26T08:19:50.715Z,93580.39
2019-05-26T08:22:18.816Z,93590.23
2019-05-26T08:24:47.466Z,93582.55
2019-05-26T08:27:17.311Z,93578.44
2019-05-26T08:29:47.304Z,93583.16
2019-05-26T08:32:15.469Z,93573.84
2019-05-26T08:34:44.047Z,93582.17
2019-05-26T08:37:12.639Z,93577.06
2019-05-26T08:39:42.815Z,93573.41
2019-05-26T08:42:24.597Z,93573.86
2019-05-26T08:44:41.681Z,93574.05
2019-05-26T08:47:09.956Z,93572.75
2019-05-26T08:49:39.778Z,93574.61
2019-05-26T08:52:08.275Z,93575.33
2019-05-26T08:54:39.374Z,93576.61
2019-05-26T08:57:07.924Z,93580.20
2019-05-26T08:59:36.330Z,93579.09
2019-05-26T09:02:05.766Z,93585.45
2019-05-26T09:04:35.936Z,93576.20
2019-05-26T09:07:06.155Z,93578.61
2019-05-26T09:09:34.411Z,93568.63
2019-05-26T09:12:04.483Z,93571.87
2019-05-26T09:14:32.958Z,93573.02
2019-05-26T09:17:03.199Z,93570.52
2019-05-26T09:19:31.851Z,93569.42
2019-05-26T09:22:00.057Z,93571.51
2019-05-26T09:24:28.654Z,93566.56
2019-05-26T09:26:57.033Z,93569.75
2019-05-26T09:29:25.213Z,93568.45
2019-05-26T09:31:53.168Z,93567.51
2019-05-26T09:34:21.168Z,93569.14
2019-05-26T09:36:49.013Z,93561.45
2019-05-26T09:39:17.777Z,93560.63
2019-05-26T09:41:46.018Z,93558.34
2019-05-26T09:44:13.860Z,93566.23
2019-05-26T09:46:44.540Z,93567.73
2019-05-26T09:49:12.791Z,93562.30
2019-05-26T09:51:41.056Z,93553.93
2019-05-26T09:54:12.803Z,93562.84
2019-05-26T09:56:40.174Z,93562.84
2019-05-26T09:59:08.351Z,93550.44
2019-05-26T10:01:35.918Z,93557.36
2019-05-26T10:04:04.641Z,93560.05
2019-05-26T10:06:33.215Z,93563.50
2019-05-26T10:09:01.810Z,93563.50
2019-05-26T10:11:31.271Z,93551.88
2019-05-26T10:13:59.743Z,93551.88
2019-05-26T10:16:30.451Z,93550.09
2019-05-26T10:18:57.988Z,93548.82
2019-05-26T10:21:26.585Z,93549.08
2019-05-26T10:23:54.832Z,93549.08
2019-05-26T10:26:26.271Z,93540.50
2019-05-26T10:28:54.135Z,93543.53
2019-05-26T10:31:22.675Z,93533.92
2019-05-26T10:33:51.830Z,93532.38
2019-05-26T10:36:22.840Z,93531.73
2019-05-26T10:38:51.507Z,93532.44
2019-05-26T10:41:19.700Z,93524.10
2019-05-26T10:43:48.005Z,93527.44
2019-05-26T10:46:18.306Z,93524.10
2019-05-26T10:48:46.891Z,93525.92
2019-05-26T10:51:15.480Z,93522.14
2019-05-26T10:53:44.115Z,93524.13
2019-05-26T10:56:11.421Z,93525.19
2019-05-26T10:58:42.466Z,93526.20
2019-05-26T11:01:13.037Z,93522.35
2019-05-26T11:03:43.215Z,93524.09
2019-05-26T11:06:10.690Z,93517.75
2019-05-26T11:08:39.297Z,93514.03
2019-05-26T11:11:07.674Z,93508.37
2019-05-26T11:13:41.001Z,93512.41
2019-05-26T11:16:08.841Z,93507.34
2019-05-26T11:18:37.429Z,93507.06
2019-05-26T11:21:05.699Z,93499.97
2019-05-26T11:23:33.897Z,93507.68
2019-05-26T11:26:02.471Z,93501.31
2019-05-26T11:28:32.349Z,93500.35
2019-05-26T11:31:00.265Z,93490.93
2019-05-26T11:33:28.850Z,93490.93
2019-05-26T11:35:59.036Z,93484.63
2019-05-26T11:38:27.781Z,93479.56
2019-05-26T11:40:58.362Z,93473.38
2019-05-26T11:43:26.594Z,93476.16
2019-05-26T11:45:54.911Z,93476.37
2019-05-26T11:48:22.711Z,93476.47
2019-05-26T11:50:53.682Z,93476.70
2019-05-26T11:53:22.202Z,93468.83
2019-05-26T11:55:50.470Z,93468.19
2019-05-26T11:58:19.092Z,93467.25
2019-05-26T12:00:47.639Z,93461.28
2019-05-26T12:03:15.833Z,93461.97
2019-05-26T12:05:44.179Z,93458.14
2019-05-26T12:08:12.473Z,93458.09
2019-05-26T12:10:41.255Z,93453.73
2019-05-26T12:13:11.991Z,93452.50
2019-05-26T12:15:40.281Z,93451.64
2019-05-26T12:18:08.320Z,93444.96
2019-05-26T12:20:38.917Z,93441.93
2019-05-26T12:23:08.018Z,93452.20
2019-05-26T12:25:38.505Z,93452.97
2019-05-26T12:28:07.665Z,93447.17
2019-05-26T12:30:37.697Z,93442.98
2019-05-26T12:33:07.857Z,93441.19
2019-05-26T12:35:46.677Z,93437.44
2019-05-26T12:38:15.104Z,93429.38
2019-05-26T12:40:43.316Z,93430.58
2019-05-26T12:43:11.380Z,93431.66
2019-05-26T12:45:39.750Z,93432.58
2019-05-26T12:48:08.112Z,93424.82
2019-05-26T12:50:36.031Z,93428.25
2019-05-26T12:53:04.456Z,93431.86
2019-05-26T12:55:32.667Z,93423.19
2019-05-26T12:58:01.011Z,93427.12
2019-05-26T13:00:45.273Z,93418.02
2019-05-26T13:02:59.655Z,93427.93
2019-05-26T13:05:27.702Z,93432.27
2019-05-26T13:07:56.331Z,93427.84
2019-05-26T13:10:24.426Z,93428.45
2019-05-26T13:12:52.595Z,93422.38
2019-05-26T13:15:20.974Z,93426.04
2019-05-26T13:17:49.590Z,93421.26
2019-05-26T13:20:17.867Z,93415.91
2019-05-26T13:22:46.121Z,93399.81
2019-05-26T13:25:16.248Z,93398.98
2019-05-26T13:27:44.140Z,93405.31
2019-05-26T13:30:14.967Z,93398.11
2019-05-26T13:32:43.161Z,93401.09
2019-05-26T13:35:11.722Z,93399.84
2019-05-26T13:37:40.316Z,93402.23
2019-05-26T13:40:09.344Z,93405.20
2019-05-26T13:42:37.245Z,93400.21
2019-05-26T13:45:21.014Z,93395.02
2019-05-26T13:47:36.376Z,93395.91
2019-05-26T13:50:05.678Z,93397.08
2019-05-26T13:52:34.213Z,93391.21
2019-05-26T13:55:04.786Z,93392.30
2019-05-26T13:57:33.025Z,93391.10
2019-05-26T14:00:03.373Z,93383.33
2019-05-26T14:02:31.949Z,93387.67
2019-05-26T14:05:00.525Z,93380.89
2019-05-26T14:07:29.152Z,93383.03
2019-05-26T14:09:57.898Z,93388.64
2019-05-26T14:12:26.494Z,93377.28
2019-05-26T14:14:56.409Z,93380.77
2019-05-26T14:17:33.481Z,93381.94
2019-05-26T14:20:03.934Z,93377.12
2019-05-26T14:22:33.785Z,93378.11
2019-05-26T14:25:01.955Z,93378.00
2019-05-26T14:27:30.305Z,93381.80
2019-05-26T14:29:58.611Z,93388.41
2019-05-26T14:32:26.966Z,93388.57
2019-05-26T14:34:55.004Z,93385.33
2019-05-26T14:37:23.654Z,93382.07
2019-05-26T14:39:52.241Z,93376.77
2019-05-26T14:42:20.823Z,93380.02
2019-05-26T14:44:49.406Z,93378.63
2019-05-26T14:47:17.817Z,93377.08
2019-05-26T14:49:46.109Z,93378.14
2019-05-26T14:52:14.323Z,93371.19
2019-05-26T14:54:43.066Z,93365.09
2019-05-26T14:57:11.608Z,93372.23
2019-05-26T14:59:40.246Z,93367.03
2019-05-26T15:02:11.491Z,93368.58
2019-05-26T15:04:39.637Z,93367.44
2019-05-26T15:07:08.056Z,93364.42
2019-05-26T15:09:37.644Z,93362.34
2019-05-26T15:12:06.139Z,93359.27
2019-05-26T15:14:34.917Z,93347.22
2019-05-26T15:17:03.741Z,93352.83
2019-05-26T15:19:31.702Z,93358.95
2019-05-26T15:22:00.203Z,93351.77
2019-05-26T15:24:28.515Z,93351.27
2019-05-26T15:26:56.344Z,93357.89
2019-05-26T15:29:25.004Z,93363.88
2019-05-26T15:31:53.525Z,93361.52
2019-05-26T15:34:22.127Z,93360.48
2019-05-26T15:36:50.797Z,93358.86
2019-05-26T15:39:19.206Z,93363.02
2019-05-26T15:41:47.390Z,93360.88
2019-05-26T15:44:15.723Z,93356.81
2019-05-26T15:46:43.946Z,93361.16
2019-05-26T15:49:12.643Z,93352.41
2019-05-26T15:51:41.316Z,93352.73
2019-05-26T15:54:09.271Z,93351.19
2019-05-26T15:56:37.446Z,93353.18
2019-05-26T15:59:06.057Z,93351.75
2019-05-26T16:01:34.296Z,93342.17
2019-05-26T16:04:04.452Z,93338.53
2019-05-26T16:06:32.345Z,93343.97
2019-05-26T16:09:00.942Z,93337.22
2019-05-26T16:11:29.326Z,93337.23
2019-05-26T16:13:57.575Z,93334.05
2019-05-26T16:16:40.106Z,93338.30
2019-05-26T16:18:56.807Z,93338.64
2019-05-26T16:21:28.314Z,93340.53
2019-05-26T16:23:55.852Z,93333.89
2019-05-26T16:26:24.335Z,93335.33
2019-05-26T16:28:52.844Z,93336.64
2019-05-26T16:31:20.799Z,93334.75
2019-05-26T16:33:48.971Z,93340.41
2019-05-26T16:36:21.080Z,93335.99
2019-05-26T16:38:48.298Z,93338.10
2019-05-26T16:41:16.896Z,93335.00
2019-05-26T16:43:45.194Z,93335.49
2019-05-26T16:46:13.444Z,93332.99
2019-05-26T16:48:41.732Z,93333.45
2019-05-26T16:51:10.018Z,93334.59
2019-05-26T16:53:38.112Z,93330.11
2019-05-26T16:56:06.751Z,93328.38
2019-05-26T16:58:34.675Z,93324.36
2019-05-26T17:01:03.245Z,93319.71
2019-05-26T17:03:31.126Z,93319.71
2019-05-26T17:06:07.636Z,93322.39
2019-05-26T17:08:28.820Z,93308.09
2019-05-26T17:10:57.376Z,93319.57
2019-05-26T17:13:25.223Z,93311.63
2019-05-26T17:15:53.457Z,93306.33
2019-05-26T17:18:21.842Z,93307.73
2019-05-26T17:20:50.285Z,93306.09
2019-05-26T17:23:18.882Z,93310.68
2019-05-26T17:25:46.496Z,93310.36
2019-05-26T17:28:14.347Z,93307.58
2019-05-26T17:30:42.574Z,93300.58
2019-05-26T17:33:10.812Z,93301.48
2019-05-26T17:35:39.009Z,93295.39
2019-05-26T17:38:07.395Z,93295.39
2019-05-26T17:40:36.155Z,93301.27
2019-05-26T17:43:04.776Z,93297.31
2019-05-26T17:45:33.143Z,93290.98
2019-05-26T17:48:01.411Z,93293.00
2019-05-26T17:50:30.033Z,93298.08
2019-05-26T17:52:59.383Z,93294.41
2019-05-26T17:55:28.101Z,93294.41
2019-05-26T17:57:56.316Z,93289.88
2019-05-26T18:00:24.073Z,93285.91
2019-05-26T18:02:52.359Z,93289.90
2019-05-26T18:05:20.939Z,93288.47
2019-05-26T18:07:49.564Z,93282.55
2019-05-26T18:10:17.969Z,93292.05
2019-05-26T18:12:46.280Z,93290.11
2019-05-26T18:15:14.777Z,93286.75
2019-05-26T18:17:47.493Z,93286.75
2019-05-26T18:20:13.050Z,93283.06
2019-05-26T18:22:41.338Z,93278.87
2019-05-26T18:25:10.027Z,93276.70
2019-05-26T18:27:38.841Z,93275.71
2019-05-26T18:30:08.629Z,93276.49
2019-05-26T18:32:37.018Z,93274.66
2019-05-26T18:35:04.987Z,93273.75
2019-05-26T18:37:33.215Z,93265.70
2019-05-26T18:40:01.985Z,93271.23
2019-05-26T18:42:30.250Z,93273.22
2019-05-26T18:44:59.027Z,93273.16
2019-05-26T18:47:26.847Z,93276.53
2019-05-26T18:49:55.227Z,93287.81
2019-05-26T18:52:23.492Z,93286.77
2019-05-26T18:54:51.203Z,93284.47
2019-05-26T18:57:19.713Z,93286.83
2019-05-26T18:59:48.455Z,93287.42
2019-05-26T19:02:17.263Z,93288.47
2019-05-26T19:04:45.636Z,93278.81
2019-05-26T19:07:14.236Z,93278.37
2019-05-26T19:09:41.517Z,93286.36
2019-05-26T19:12:10.308Z,93292.38
2019-05-26T19:14:38.207Z,93290.83
2019-05-26T19:17:08.291Z,93288.63
2019-05-26T19:19:36.773Z,93292.48
2019-05-26T19:22:05.436Z,93293.08
2019-05-26T19:24:33.536Z,93300.45
2019-05-26T19:27:01.326Z,93299.97
2019-05-26T19:29:30.057Z,93297.66
2019-05-26T19:31:57.936Z,93301.92
2019-05-26T19:34:26.572Z,93293.97
2019-05-26T19:36:55.216Z,93305.30
2019-05-26T19:39:23.435Z,93300.67
2019-05-26T19:41:51.523Z,93304.08
2019-05-26T19:44:19.382Z,93307.02
2019-05-26T19:46:47.953Z,93304.89
2019-05-26T19:49:16.245Z,93300.08
2019-05-26T19:51:44.510Z,93309.09
2019-05-26T19:54:12.477Z,93311.20
2019-05-26T19:56:41.165Z,93319.75
2019-05-26T19:59:09.342Z,93319.80
2019-05-26T20:01:37.237Z,93324.11
2019-05-26T20:04:05.641Z,93322.04
2019-05-26T20:06:34.838Z,93328.33
2019-05-26T20:09:04.486Z,93319.08
2019-05-26T20:11:33.246Z,93324.93
2019-05-26T20:14:01.863Z,93319.74
2019-05-26T20:16:31.031Z,93325.53
2019-05-26T20:18:59.443Z,93327.61
2019-05-26T20:21:28.061Z,93329.55
2019-05-26T20:23:55.846Z,93331.32
2019-05-26T20:26:24.509Z,93331.27
2019-05-26T20:28:52.607Z,93324.95
2019-05-26T20:31:20.624Z,93324.91
2019-05-26T20:33:48.584Z,93327.95
2019-05-26T20:36:17.974Z,93330.31
2019-05-26T20:38:46.530Z,93325.23
2019-05-26T20:41:15.792Z,93329.44
2019-05-26T20:43:44.078Z,93321.72
2019-05-26T20:46:14.086Z,93335.88
2019-05-26T20:48:42.635Z,93336.58
2019-05-26T20:51:14.168Z,93339.48
2019-05-26T20:53:42.427Z,93338.81
2019-05-26T20:56:13.162Z,93333.84
2019-05-26T20:58:41.375Z,93335.33
2019-05-26T21:01:09.732Z,93334.28
2019-05-26T21:03:38.007Z,93337.08
2019-05-26T21:06:06.198Z,93333.56
2019-05-26T21:08:34.442Z,93334.25
2019-05-26T21:11:02.829Z,93336.34
2019-05-26T21:13:32.941Z,93338.92
2019-05-26T21:16:01.167Z,93332.41
2019-05-26T21:18:29.146Z,93333.01
2019-05-26T21:20:57.002Z,93328.47
2019-05-26T21:23:24.841Z,93330.86
2019-05-26T21:25:53.378Z,93332.75
2019-05-26T21:28:24.016Z,93333.55
2019-05-26T21:30:52.509Z,93330.83
2019-05-26T21:33:20.852Z,93332.43
2019-05-26T21:35:49.371Z,93329.45
2019-05-26T21:38:18.905Z,93333.77
2019-05-26T21:40:46.515Z,93329.31
2019-05-26T21:43:14.771Z,93328.45
2019-05-26T21:45:44.363Z,93332.63
2019-05-26T21:48:13.121Z,93337.84
2019-05-26T21:50:41.876Z,93331.37
2019-05-26T21:53:10.103Z,93328.12
2019-05-26T21:55:37.783Z,93321.97
2019-05-26T21:58:06.382Z,93322.05
2019-05-26T22:00:40.021Z,93321.78
2019-05-26T22:03:08.260Z,93328.58
2019-05-26T22:05:37.431Z,93328.20
2019-05-26T22:08:05.934Z,93325.45
2019-05-26T22:10:35.579Z,93325.41
2019-05-26T22:13:04.357Z,93326.20
2019-05-26T22:15:33.881Z,93323.87
2019-05-26T22:18:03.072Z,93318.09
2019-05-26T22:20:31.935Z,93316.78
2019-05-26T22:23:00.453Z,93318.25
2019-05-26T22:25:29.051Z,93323.57
2019-05-26T22:27:58.182Z,93322.29
2019-05-26T22:30:27.947Z,93319.48
2019-05-26T22:32:56.969Z,93322.63
2019-05-26T22:35:24.862Z,93324.48
2019-05-26T22:37:52.836Z,93314.52
2019-05-26T22:40:22.419Z,93318.61
2019-05-26T22:42:50.321Z,93322.09
2019-05-26T22:45:18.286Z,93317.65
2019-05-26T22:47:46.591Z,93313.48
2019-05-26T22:50:15.322Z,93313.75
2019-05-26T22:52:44.017Z,93308.48
2019-05-26T22:55:11.690Z,93310.94
2019-05-26T22:57:39.877Z,93312.64
2019-05-26T23:00:09.397Z,93310.98
2019-05-26T23:02:37.593Z,93302.37
2019-05-26T23:05:06.403Z,93303.98
2019-05-26T23:07:35.034Z,93297.33
2019-05-26T23:10:03.848Z,93291.69
2019-05-26T23:12:31.652Z,93289.95
2019-05-26T23:14:59.427Z,93290.14
2019-05-26T23:17:27.894Z,93290.41
2019-05-26T23:19:56.042Z,93290.59
2019-05-26T23:22:24.340Z,93296.31
2019-05-26T23:24:52.839Z,93287.70
2019-05-26T23:27:20.872Z,93293.63
2019-05-26T23:29:48.754Z,93299.02
2019-05-26T23:32:17.055Z,93291.97
2019-05-26T23:34:45.635Z,93285.44
2019-05-26T23:37:14.323Z,93282.17
2019-05-26T23:39:42.777Z,93283.59
2019-05-26T23:42:10.726Z,93279.13
2019-05-26T23:44:38.753Z,93279.30
2019-05-26T23:47:07.052Z,93277.98
2019-05-26T23:49:35.622Z,93275.72
2019-05-26T23:52:04.353Z,93276.09
2019-05-26T23:54:32.638Z,93274.06
2019-05-26T23:57:00.877Z,93269.89
2019-05-26T23:59:29.475Z,93269.19
